Time;durP1;ratioP1;P1;durP2;ratioP2;P2;SDS_P1;SDS_P2;PMS_P1;PMS_P2;Temp;Humidity;BMP_temperature;BMP_pressure;BME280_temperature;BME280_humidity;BME280_pressure;Samples;Min_cycle;Max_cycle;Signal;HPM_P1;HPM_P2
2022/03/01 00:01:34;;;;;;;25.10;9.50;;;;;;;-1.69;83.63;102432.73;108185;1277;59222;-77
2022/03/01 00:04:01;;;;;;;20.00;8.90;;;;;;;-1.71;83.78;102426.71;107983;1278;59164;-76
2022/03/01 00:06:27;;;;;;;17.30;7.30;;;;;;;-1.72;83.93;102426.74;107931;1280;74068;-76
2022/03/01 00:08:54;;;;;;;19.50;8.60;;;;;;;-1.74;83.71;102420.92;108231;1277;60323;-78
2022/03/01 00:11:21;;;;;;;17.80;7.50;;;;;;;-1.77;83.62;102419.80;107691;1279;59237;-76
2022/03/01 00:13:49;;;;;;;17.90;7.40;;;;;;;-1.79;83.88;102419.02;108181;1277;76617;-76
2022/03/01 00:16:16;;;;;;;22.30;8.10;;;;;;;-1.81;83.86;102415.46;108051;1278;72406;-77
2022/03/01 00:18:44;;;;;;;18.70;7.10;;;;;;;-1.84;83.92;102413.46;108207;1277;72958;-77
2022/03/01 00:21:11;;;;;;;20.40;9.10;;;;;;;-1.87;83.80;102418.23;108023;1279;61455;-77
2022/03/01 00:23:37;;;;;;;23.70;9.20;;;;;;;-1.92;83.65;102418.41;108172;1277;60572;-76
2022/03/01 00:26:04;;;;;;;15.60;6.80;;;;;;;-1.97;83.81;102417.54;108168;1277;75034;-78
2022/03/01 00:28:33;;;;;;;15.70;7.10;;;;;;;-2.00;83.91;102416.44;108051;1278;72523;-76
2022/03/01 00:31:00;;;;;;;14.50;7.70;;;;;;;-2.02;84.04;102417.38;108190;1277;74070;-77
2022/03/01 00:33:27;;;;;;;21.60;8.30;;;;;;;-2.04;83.98;102421.59;107880;1277;61626;-77
2022/03/01 00:35:53;;;;;;;16.50;8.10;;;;;;;-2.08;83.96;102415.98;107994;1277;61374;-77
2022/03/01 00:38:20;;;;;;;15.00;6.70;;;;;;;-2.07;83.75;102412.13;108186;1275;58965;-77
2022/03/01 00:40:46;;;;;;;16.60;8.10;;;;;;;-2.08;83.84;102414.77;108224;1277;59426;-76
2022/03/01 00:43:13;;;;;;;19.80;8.30;;;;;;;-2.11;83.69;102408.29;108155;1277;58961;-77
2022/03/01 00:45:40;;;;;;;18.60;7.50;;;;;;;-2.13;83.57;102408.70;108193;1277;61219;-76
2022/03/01 00:48:10;;;;;;;24.10;7.80;;;;;;;-2.15;83.82;102408.59;108091;1277;60491;-76
2022/03/01 00:50:36;;;;;;;22.80;9.20;;;;;;;-2.17;83.67;102405.20;108116;1277;76410;-76
2022/03/01 00:53:04;;;;;;;19.50;9.20;;;;;;;-2.20;83.62;102401.30;108171;1277;70273;-76
2022/03/01 00:55:30;;;;;;;20.90;8.00;;;;;;;-2.23;83.66;102401.41;108170;1277;73972;-76
2022/03/01 00:57:57;;;;;;;21.30;8.90;;;;;;;-2.26;83.86;102403.23;108169;1277;62393;-76
2022/03/01 01:00:24;;;;;;;19.50;8.50;;;;;;;-2.28;83.76;102406.61;107906;1277;61164;-77
2022/03/01 01:02:51;;;;;;;17.50;8.90;;;;;;;-2.31;83.64;102405.46;108163;1276;59875;-75
2022/03/01 01:05:17;;;;;;;18.50;8.70;;;;;;;-2.34;83.83;102399.33;107990;1277;71133;-75
2022/03/01 01:07:44;;;;;;;22.20;9.20;;;;;;;-2.35;83.96;102398.87;108151;1276;72941;-76
2022/03/01 01:10:11;;;;;;;19.50;7.70;;;;;;;-2.36;84.07;102391.79;108169;1277;59477;-75
2022/03/01 01:12:39;;;;;;;18.90;8.20;;;;;;;-2.38;84.13;102390.30;108153;1277;61312;-75
2022/03/01 01:15:07;;;;;;;22.40;8.10;;;;;;;-2.40;83.93;102389.31;108222;1276;76722;-76
2022/03/01 01:17:33;;;;;;;15.20;8.30;;;;;;;-2.41;83.84;102395.57;107985;1277;71431;-77
2022/03/01 01:20:00;;;;;;;21.60;8.20;;;;;;;-2.43;83.66;102386.13;108193;1277;72607;-75
2022/03/01 01:22:42;;;;;;;21.60;6.10;;;;;;;-2.46;83.82;102382.91;108127;1277;61187;-77
2022/03/01 01:25:17;;;;;;;15.50;7.30;;;;;;;-2.49;83.94;102379.53;108217;1276;60101;-75
2022/03/01 01:27:47;;;;;;;18.30;6.80;;;;;;;-2.49;84.20;102377.13;108158;1276;75919;-77
2022/03/01 01:30:17;;;;;;;14.10;6.60;;;;;;;-2.50;84.04;102374.21;108157;1277;73257;-75
2022/03/01 01:32:44;;;;;;;20.30;8.70;;;;;;;-2.52;83.87;102375.83;107982;1277;72922;-75
2022/03/01 01:35:14;;;;;;;13.40;6.10;;;;;;;-2.52;84.01;102377.41;108187;1277;60200;-76
2022/03/01 01:37:41;;;;;;;20.80;7.60;;;;;;;-2.54;83.76;102380.90;108135;1277;60119;-75
2022/03/01 01:40:13;;;;;;;18.20;7.60;;;;;;;-2.55;83.82;102376.11;108172;1274;74377;-76
2022/03/01 01:42:40;;;;;;;20.80;8.70;;;;;;;-2.58;83.85;102374.47;108001;1279;72522;-75
2022/03/01 01:45:08;;;;;;;19.80;8.50;;;;;;;-2.61;84.03;102375.94;107857;1277;74290;-75
2022/03/01 01:47:44;;;;;;;18.80;8.40;;;;;;;-2.64;84.03;102377.63;108045;1277;61530;-75
2022/03/01 01:50:11;;;;;;;14.40;6.80;;;;;;;-2.68;84.05;102374.42;108185;1277;60578;-75
2022/03/01 01:52:38;;;;;;;16.40;6.80;;;;;;;-2.72;84.13;102370.58;108195;1277;75413;-76
2022/03/01 01:55:05;;;;;;;13.70;6.70;;;;;;;-2.75;84.28;102373.80;108162;1276;72373;-76
2022/03/01 01:57:31;;;;;;;22.40;8.20;;;;;;;-2.77;84.26;102372.30;107966;1278;72981;-75
2022/03/01 02:00:00;;;;;;;17.20;6.60;;;;;;;-2.80;84.13;102370.49;108127;1277;62162;-77
2022/03/01 02:02:26;;;;;;;19.30;7.20;;;;;;;-2.83;84.30;102368.70;108218;1276;60165;-77
2022/03/01 02:04:53;;;;;;;17.10;7.10;;;;;;;-2.86;84.33;102373.09;108183;1277;76068;-75
2022/03/01 02:07:20;;;;;;;16.50;7.70;;;;;;;-2.89;84.27;102372.13;108173;1277;71447;-76
2022/03/01 02:09:46;;;;;;;16.50;7.50;;;;;;;-2.91;84.36;102377.37;108150;1277;72912;-76
2022/03/01 02:12:13;;;;;;;18.20;7.20;;;;;;;-2.94;84.36;102375.90;108183;1277;58835;-76
2022/03/01 02:14:40;;;;;;;19.10;7.70;;;;;;;-2.96;84.37;102377.20;108179;1276;59857;-74
2022/03/01 02:17:10;;;;;;;23.40;7.30;;;;;;;-2.98;84.66;102380.02;108018;1277;74975;-75
2022/03/01 02:19:37;;;;;;;21.20;7.50;;;;;;;-3.01;84.58;102377.86;108144;1277;72042;-75
2022/03/01 02:22:06;;;;;;;16.70;6.70;;;;;;;-3.02;84.58;102376.50;108157;1277;73130;-75
2022/03/01 02:24:32;;;;;;;19.90;7.30;;;;;;;-3.05;84.54;102370.70;108170;1277;63223;-77
2022/03/01 02:27:04;;;;;;;19.20;9.70;;;;;;;-3.08;84.57;102369.06;108205;1277;61543;-76
2022/03/01 02:29:33;;;;;;;18.90;6.80;;;;;;;-3.10;84.66;102371.91;107933;1277;74927;-75
2022/03/01 02:32:03;;;;;;;18.10;6.70;;;;;;;-3.13;84.74;102356.92;108076;1277;71360;-75
2022/03/01 02:34:31;;;;;;;17.30;7.60;;;;;;;-3.15;84.82;102350.92;108122;1276;72983;-75
2022/03/01 02:36:58;;;;;;;14.60;6.20;;;;;;;-3.16;84.96;102350.63;108136;1277;62979;-76
2022/03/01 02:39:24;;;;;;;15.60;6.20;;;;;;;-3.17;85.10;102351.69;107757;1279;60295;-77
2022/03/01 02:41:51;;;;;;;21.20;8.80;;;;;;;-3.20;84.85;102345.90;108204;1277;59088;-75
2022/03/01 02:44:17;;;;;;;21.60;7.70;;;;;;;-3.24;84.78;102347.39;108159;1277;59261;-76
2022/03/01 02:46:45;;;;;;;17.60;7.30;;;;;;;-3.28;84.90;102348.34;108198;1277;73971;-76
2022/03/01 02:49:11;;;;;;;20.00;8.30;;;;;;;-3.31;84.95;102345.17;108112;1277;62343;-75
2022/03/01 02:51:39;;;;;;;19.10;8.00;;;;;;;-3.34;85.05;102344.05;108173;1277;60543;-75
2022/03/01 02:54:06;;;;;;;19.60;8.10;;;;;;;-3.39;85.44;102347.65;108110;1277;75897;-75
2022/03/01 02:56:33;;;;;;;24.30;7.10;;;;;;;-3.41;85.55;102343.91;108162;1277;70557;-74
2022/03/01 02:58:59;;;;;;;23.80;7.70;;;;;;;-3.44;85.76;102338.80;108135;1277;72919;-74
2022/03/01 03:01:27;;;;;;;18.80;6.60;;;;;;;-3.46;85.86;102336.97;107945;1278;63472;-75
2022/03/01 03:03:55;;;;;;;18.60;5.60;;;;;;;-3.49;86.32;102339.98;108180;1277;60516;-75
2022/03/01 03:06:21;;;;;;;18.90;7.10;;;;;;;-3.51;86.34;102345.39;108190;1277;74912;-77
2022/03/01 03:08:48;;;;;;;17.30;7.90;;;;;;;-3.52;86.42;102344.23;108174;1277;59439;-74
2022/03/01 03:11:15;;;;;;;13.40;6.40;;;;;;;-3.53;86.50;102347.55;107924;1277;72984;-76
2022/03/01 03:13:42;;;;;;;22.50;7.30;;;;;;;-3.54;86.63;102352.08;108032;1277;63246;-75
2022/03/01 03:16:10;;;;;;;15.80;6.50;;;;;;;-3.56;86.67;102349.35;108198;1277;60701;-75
2022/03/01 03:18:38;;;;;;;19.80;8.60;;;;;;;-3.57;86.68;102347.30;108205;1276;75885;-75
2022/03/01 03:21:05;;;;;;;19.00;7.70;;;;;;;-3.58;86.86;102351.14;108176;1276;72438;-76
2022/03/01 03:23:33;;;;;;;14.80;5.80;;;;;;;-3.59;86.93;102354.43;108029;1277;72496;-76
2022/03/01 03:25:59;;;;;;;17.60;6.80;;;;;;;-3.58;87.05;102347.67;108199;1276;61972;-75
2022/03/01 03:28:26;;;;;;;18.60;7.10;;;;;;;-3.56;87.34;102352.98;108182;1276;60216;-75
2022/03/01 03:30:53;;;;;;;18.00;5.90;;;;;;;-3.53;87.37;102354.63;108139;1277;61096;-76
2022/03/01 03:33:19;;;;;;;19.50;8.20;;;;;;;-3.50;87.25;102351.75;108185;1277;71393;-76
2022/03/01 03:35:48;;;;;;;14.20;6.80;;;;;;;-3.48;87.09;102354.15;108145;1277;72901;-77
2022/03/01 03:38:15;;;;;;;17.40;6.30;;;;;;;-3.47;87.02;102356.38;108120;1277;62115;-76
2022/03/01 03:40:42;;;;;;;22.90;7.90;;;;;;;-3.45;87.10;102354.23;108049;1277;61425;-75
2022/03/01 03:43:09;;;;;;;17.10;8.10;;;;;;;-3.45;86.92;102348.68;107991;1279;75939;-76
2022/03/01 03:45:35;;;;;;;17.70;6.20;;;;;;;-3.45;86.83;102352.48;108154;1276;59512;-77
2022/03/01 03:48:02;;;;;;;27.40;7.60;;;;;;;-3.44;86.87;102351.95;107995;1277;74249;-77
2022/03/01 03:50:29;;;;;;;17.70;7.10;;;;;;;-3.43;86.75;102349.00;108105;1277;62269;-76
2022/03/01 03:52:56;;;;;;;18.30;7.90;;;;;;;-3.45;86.62;102350.94;108224;1277;60946;-75
2022/03/01 03:55:22;;;;;;;22.40;7.40;;;;;;;-3.46;86.47;102355.13;107916;1276;74958;-79
2022/03/01 03:57:49;;;;;;;15.00;6.10;;;;;;;-3.49;86.33;102347.44;108198;1277;59140;-76
2022/03/01 04:00:17;;;;;;;18.90;7.90;;;;;;;-3.52;86.38;102346.46;107984;1277;59263;-75
2022/03/01 04:02:45;;;;;;;25.90;8.70;;;;;;;-3.55;86.44;102347.93;108188;1277;61949;-76
2022/03/01 04:05:15;;;;;;;17.80;7.60;;;;;;;-3.59;86.39;102347.19;108027;1277;59444;-75
2022/03/01 04:07:43;;;;;;;17.60;7.40;;;;;;;-3.65;86.36;102338.34;107873;1277;75887;-75
2022/03/01 04:10:10;;;;;;;18.20;8.00;;;;;;;-3.69;86.47;102339.16;108146;1276;71601;-76
2022/03/01 04:12:37;;;;;;;21.10;7.50;;;;;;;-3.72;86.69;102340.80;108031;1277;73330;-75
2022/03/01 04:15:06;;;;;;;22.50;8.70;;;;;;;-3.75;86.93;102340.36;108167;1277;64079;-77
2022/03/01 04:17:33;;;;;;;18.80;7.50;;;;;;;-3.77;86.91;102335.92;107995;1278;61689;-77
2022/03/01 04:20:01;;;;;;;19.60;7.60;;;;;;;-3.80;87.09;102337.37;108103;1277;75932;-75
2022/03/01 04:22:29;;;;;;;18.00;8.00;;;;;;;-3.81;87.23;102342.09;108033;1277;71373;-77
2022/03/01 04:24:56;;;;;;;22.20;9.60;;;;;;;-3.84;87.31;102336.79;108115;1277;72789;-76
2022/03/01 04:27:23;;;;;;;19.90;7.90;;;;;;;-3.86;87.42;102336.86;108206;1277;61308;-77
2022/03/01 04:29:49;;;;;;;24.00;8.60;;;;;;;-3.87;87.56;102337.73;108093;1277;60688;-77
2022/03/01 04:32:16;;;;;;;22.30;9.10;;;;;;;-3.88;87.71;102337.45;108080;1277;74781;-75
2022/03/01 04:34:43;;;;;;;24.80;8.80;;;;;;;-3.89;87.78;102340.05;108170;1277;71116;-75
2022/03/01 04:37:10;;;;;;;24.40;8.50;;;;;;;-3.90;87.85;102341.98;108191;1276;72966;-75
2022/03/01 04:39:36;;;;;;;20.90;8.50;;;;;;;-3.91;87.96;102346.15;108006;1277;63370;-76
2022/03/01 04:42:04;;;;;;;16.90;7.70;;;;;;;-3.91;88.03;102342.71;108159;1277;60600;-75
2022/03/01 04:44:33;;;;;;;25.80;8.40;;;;;;;-3.92;88.07;102346.02;108083;1277;75911;-77
2022/03/01 04:47:01;;;;;;;21.70;9.10;;;;;;;-3.94;88.16;102343.63;108176;1277;72450;-77
2022/03/01 04:49:29;;;;;;;21.70;8.00;;;;;;;-3.93;88.19;102347.08;108146;1276;72933;-76
2022/03/01 04:51:56;;;;;;;23.70;9.50;;;;;;;-3.94;88.15;102342.42;108203;1277;62201;-75
2022/03/01 04:54:22;;;;;;;23.80;9.30;;;;;;;-3.95;88.11;102340.71;107985;1276;59584;-75
2022/03/01 04:56:49;;;;;;;22.00;8.00;;;;;;;-3.96;88.30;102340.59;108179;1277;59198;-75
2022/03/01 04:59:15;;;;;;;25.70;9.20;;;;;;;-3.96;88.34;102336.25;108169;1277;59215;-77
2022/03/01 05:01:43;;;;;;;25.90;8.60;;;;;;;-3.97;88.36;102334.56;108181;1277;72702;-75
2022/03/01 05:04:10;;;;;;;20.00;8.80;;;;;;;-3.98;88.44;102339.59;108071;1278;63235;-75
2022/03/01 05:06:38;;;;;;;21.40;8.40;;;;;;;-3.99;88.40;102339.63;108099;1277;61954;-75
2022/03/01 05:09:04;;;;;;;20.20;9.00;;;;;;;-4.00;88.44;102332.57;108145;1277;76213;-75
2022/03/01 05:11:32;;;;;;;18.30;8.30;;;;;;;-4.01;88.41;102329.65;108174;1277;70753;-75
2022/03/01 05:13:59;;;;;;;21.70;8.80;;;;;;;-4.02;88.57;102329.69;108043;1278;72945;-75
2022/03/01 05:16:25;;;;;;;25.30;9.20;;;;;;;-4.02;88.69;102328.14;108162;1277;62247;-76
2022/03/01 05:18:52;;;;;;;22.10;8.60;;;;;;;-4.03;88.59;102327.13;107953;1277;60990;-75
2022/03/01 05:21:18;;;;;;;28.60;10.80;;;;;;;-4.04;88.78;102324.53;108139;1277;59223;-78
2022/03/01 05:23:45;;;;;;;20.00;9.00;;;;;;;-4.04;88.76;102329.56;108226;1277;59509;-76
2022/03/01 05:26:11;;;;;;;20.70;8.00;;;;;;;-4.04;88.77;102327.85;108126;1276;58698;-76
2022/03/01 05:28:38;;;;;;;21.70;8.80;;;;;;;-4.05;88.89;102321.14;108164;1277;58861;-75
2022/03/01 05:31:04;;;;;;;17.80;7.50;;;;;;;-4.05;88.95;102319.59;108059;1277;59110;-75
2022/03/01 05:33:31;;;;;;;26.50;9.70;;;;;;;-4.06;88.88;102325.47;108042;1278;59102;-76
2022/03/01 05:35:58;;;;;;;24.40;8.50;;;;;;;-4.07;88.82;102323.09;108090;1278;71482;-75
2022/03/01 05:38:24;;;;;;;27.80;10.60;;;;;;;-4.09;88.75;102322.59;107832;1277;73949;-75
2022/03/01 05:40:54;;;;;;;19.20;9.20;;;;;;;-4.11;88.84;102322.30;108198;1277;62305;-76
2022/03/01 05:43:20;;;;;;;22.60;9.40;;;;;;;-4.12;88.95;102324.58;107981;1277;59363;-75
2022/03/01 05:45:47;;;;;;;24.80;10.40;;;;;;;-4.13;88.95;102323.39;108177;1277;76154;-76
2022/03/01 05:48:13;;;;;;;24.20;9.00;;;;;;;-4.13;89.04;102328.06;108127;1277;59020;-76
2022/03/01 05:50:40;;;;;;;18.90;8.60;;;;;;;-4.13;89.14;102330.15;108155;1277;60598;-76
2022/03/01 05:53:06;;;;;;;26.50;9.50;;;;;;;-4.14;89.30;102330.86;108243;1277;59267;-75
2022/03/01 05:55:33;;;;;;;23.30;9.20;;;;;;;-4.13;89.32;102327.88;108132;1277;59399;-76
2022/03/01 05:58:00;;;;;;;26.80;9.30;;;;;;;-4.12;89.50;102326.81;108039;1277;74647;-75
2022/03/01 06:00:26;;;;;;;20.70;8.60;;;;;;;-4.09;89.52;102325.20;107929;1279;71416;-76
2022/03/01 06:02:52;;;;;;;15.70;6.50;;;;;;;-4.08;89.60;102322.41;108194;1277;59201;-75
2022/03/01 06:05:25;;;;;;;20.70;8.90;;;;;;;-4.04;89.70;102318.49;108168;1277;63018;-75
2022/03/01 06:07:52;;;;;;;26.80;10.40;;;;;;;-3.99;89.67;102326.14;108183;1277;60271;-75
2022/03/01 06:10:18;;;;;;;26.10;10.60;;;;;;;-3.95;89.61;102335.55;108220;1277;59133;-74
2022/03/01 06:12:45;;;;;;;27.20;9.40;;;;;;;-3.91;89.29;102337.17;107973;1277;60108;-76
2022/03/01 06:15:12;;;;;;;25.30;9.50;;;;;;;-3.88;89.22;102332.44;108175;1277;74385;-76
2022/03/01 06:17:39;;;;;;;28.10;11.20;;;;;;;-3.85;89.14;102336.31;107897;1278;61906;-76
2022/03/01 06:20:08;;;;;;;27.60;9.20;;;;;;;-3.81;89.15;102333.63;107945;1277;61439;-75
2022/03/01 06:22:35;;;;;;;22.70;9.70;;;;;;;-3.76;89.09;102332.78;108233;1277;74974;-75
2022/03/01 06:25:03;;;;;;;18.60;8.00;;;;;;;-3.71;89.03;102330.23;108095;1278;71343;-75
2022/03/01 06:27:29;;;;;;;18.80;7.10;;;;;;;-3.63;88.90;102335.20;108017;1277;73990;-75
2022/03/01 06:29:56;;;;;;;27.80;9.30;;;;;;;-3.54;88.87;102338.39;107950;1278;59411;-76
2022/03/01 06:32:22;;;;;;;26.30;9.60;;;;;;;-3.43;88.76;102348.64;108141;1277;59112;-77
2022/03/01 06:34:50;;;;;;;22.60;8.80;;;;;;;-3.31;88.69;102348.64;108114;1277;60130;-75
2022/03/01 06:37:33;;;;;;;18.70;7.50;;;;;;;-3.13;88.63;102346.02;108252;1277;71801;-76
2022/03/01 06:40:00;;;;;;;12.20;6.10;;;;;;;-2.96;87.74;102346.55;107826;1280;73499;-75
2022/03/01 06:42:27;;;;;;;16.50;6.20;;;;;;;-2.78;87.23;102346.89;108276;1278;61199;-76
2022/03/01 06:44:54;;;;;;;14.40;6.30;;;;;;;-2.62;86.61;102346.53;108236;1277;59785;-76
2022/03/01 06:47:20;;;;;;;19.00;6.30;;;;;;;-2.46;86.12;102350.86;108231;1277;75079;-77
2022/03/01 06:49:47;;;;;;;13.80;6.30;;;;;;;-2.31;85.56;102348.98;108119;1278;72452;-78
2022/03/01 06:52:14;;;;;;;13.10;5.90;;;;;;;-2.17;84.88;102354.58;108280;1277;73084;-78
2022/03/01 06:54:44;;;;;;;15.50;6.90;;;;;;;-2.02;84.29;102357.89;108140;1279;61553;-77
2022/03/01 06:57:11;;;;;;;17.20;7.40;;;;;;;-1.89;83.93;102352.95;108250;1277;59296;-77
2022/03/01 06:59:37;;;;;;;10.00;4.70;;;;;;;-1.77;83.59;102350.61;107782;1279;75966;-76
2022/03/01 07:02:04;;;;;;;15.50;6.60;;;;;;;-1.65;82.85;102355.91;108016;1279;71434;-77
2022/03/01 07:04:31;;;;;;;9.10;4.20;;;;;;;-1.53;82.75;102351.84;107909;1279;72889;-76
2022/03/01 07:06:58;;;;;;;15.50;6.20;;;;;;;-1.42;81.81;102349.87;108111;1279;59216;-76
2022/03/01 07:09:25;;;;;;;15.40;6.80;;;;;;;-1.34;81.39;102345.73;108017;1278;62321;-75
2022/03/01 07:11:51;;;;;;;14.20;5.60;;;;;;;-1.25;80.97;102343.51;107895;1278;74810;-76
2022/03/01 07:14:18;;;;;;;19.40;6.30;;;;;;;-1.15;80.78;102342.27;108289;1277;59076;-76
2022/03/01 07:16:45;;;;;;;14.50;5.30;;;;;;;-1.07;80.44;102336.91;108284;1277;73114;-77
2022/03/01 07:19:11;;;;;;;9.10;4.20;;;;;;;-0.97;80.12;102334.98;108274;1277;62645;-77
2022/03/01 07:21:38;;;;;;;12.70;6.40;;;;;;;-0.88;79.42;102337.05;108280;1277;59077;-75
2022/03/01 07:24:07;;;;;;;17.70;8.30;;;;;;;-0.78;79.41;102336.64;108059;1278;76226;-77
2022/03/01 07:26:33;;;;;;;14.90;5.80;;;;;;;-0.69;79.17;102340.45;108232;1277;59065;-75
2022/03/01 07:29:00;;;;;;;17.50;8.80;;;;;;;-0.60;78.80;102349.84;108273;1277;73049;-77
2022/03/01 07:31:27;;;;;;;16.60;8.20;;;;;;;-0.50;78.57;102352.36;108071;1277;61198;-77
2022/03/01 07:33:53;;;;;;;14.20;6.50;;;;;;;-0.37;77.93;102352.02;108064;1277;60265;-76
2022/03/01 07:36:20;;;;;;;17.80;7.70;;;;;;;-0.24;77.69;102346.46;108245;1277;76291;-77
2022/03/01 07:38:47;;;;;;;18.40;8.00;;;;;;;-0.13;77.08;102341.84;108285;1278;59049;-76
2022/03/01 07:41:13;;;;;;;17.80;7.00;;;;;;;-0.03;76.68;102340.34;107912;1277;410469;-76
2022/03/01 07:43:40;;;;;;;13.10;5.30;;;;;;;0.06;76.43;102335.80;108317;1277;59065;-77
2022/03/01 07:46:11;;;;;;;16.00;7.20;;;;;;;0.11;75.67;102330.55;108284;1277;59439;-76
2022/03/01 07:48:42;;;;;;;11.90;5.50;;;;;;;0.15;75.37;102325.47;107858;1279;74851;-76
2022/03/01 07:51:09;;;;;;;10.50;4.90;;;;;;;0.19;74.67;102320.95;108300;1278;70407;-77
2022/03/01 07:53:37;;;;;;;15.80;7.50;;;;;;;0.26;74.19;102327.80;107939;1280;74061;-76
2022/03/01 07:56:06;;;;;;;12.30;5.80;;;;;;;0.35;74.77;102336.78;107831;1280;61167;-77
2022/03/01 07:58:33;;;;;;;15.30;7.10;;;;;;;0.47;74.08;102336.77;108329;1277;60677;-77
2022/03/01 08:00:59;;;;;;;16.70;8.00;;;;;;;0.62;73.05;102338.68;108236;1277;75979;-77
2022/03/01 08:03:26;;;;;;;17.10;8.20;;;;;;;0.78;73.01;102336.41;108161;1279;72407;-77
2022/03/01 08:05:53;;;;;;;13.50;6.90;;;;;;;0.90;71.99;102335.34;108292;1277;71986;-77
2022/03/01 08:08:20;;;;;;;9.70;4.50;;;;;;;1.02;71.89;102334.61;108173;1278;59077;-77
2022/03/01 08:10:49;;;;;;;16.70;7.20;;;;;;;1.13;71.29;102339.10;108151;1279;59978;-76
2022/03/01 08:13:35;;;;;;;11.60;6.00;;;;;;;1.30;70.18;102348.60;108136;1277;77859;-78
2022/03/01 08:16:05;;;;;;;12.00;6.10;;;;;;;1.43;69.92;102347.63;108156;1278;71330;-75
2022/03/01 08:18:33;;;;;;;15.30;7.80;;;;;;;1.56;70.08;102340.69;108312;1277;72653;-76
2022/03/01 08:20:59;;;;;;;15.20;6.40;;;;;;;1.72;68.62;102342.36;108226;1276;63915;-76
2022/03/01 08:23:26;;;;;;;14.10;6.70;;;;;;;1.84;67.69;102342.08;108151;1277;59051;-76
2022/03/01 08:25:56;;;;;;;12.40;6.80;;;;;;;1.96;67.57;102339.58;108157;1278;74797;-79
2022/03/01 08:28:23;;;;;;;14.00;5.70;;;;;;;2.08;66.29;102341.05;108236;1277;73051;-76
2022/03/01 08:30:49;;;;;;;9.30;4.70;;;;;;;2.19;66.21;102330.89;108288;1275;73941;-77
2022/03/01 08:33:16;;;;;;;13.50;5.90;;;;;;;2.28;65.65;102331.10;108115;1278;62138;-77
2022/03/01 08:35:43;;;;;;;11.70;5.70;;;;;;;2.37;65.94;102334.63;108303;1277;60313;-76
2022/03/01 08:38:10;;;;;;;10.40;4.80;;;;;;;2.48;64.74;102342.27;108125;1277;74793;-77
2022/03/01 08:40:39;;;;;;;12.50;6.50;;;;;;;2.54;63.20;102339.69;108324;1277;72591;-77
2022/03/01 08:43:07;;;;;;;14.70;6.80;;;;;;;2.64;63.33;102341.96;108130;1279;72890;-77
2022/03/01 08:45:34;;;;;;;12.10;6.50;;;;;;;2.73;62.30;102343.00;107925;1277;60726;-77
2022/03/01 08:48:01;;;;;;;9.50;5.80;;;;;;;2.83;62.00;102331.98;108288;1277;59133;-77
2022/03/01 08:50:27;;;;;;;14.10;6.50;;;;;;;2.96;60.69;102330.61;108256;1277;75758;-77
2022/03/01 08:53:10;;;;;;;12.20;5.70;;;;;;;3.01;60.48;102334.69;108115;1277;71496;-77
2022/03/01 08:55:37;;;;;;;18.50;9.30;;;;;;;3.00;59.99;102334.38;107998;1278;72019;-77
2022/03/01 08:58:04;;;;;;;13.50;6.40;;;;;;;3.08;60.56;102323.80;108281;1277;59575;-76
2022/03/01 09:00:31;;;;;;;13.50;6.30;;;;;;;3.14;59.87;102325.74;108101;1277;61502;-77
2022/03/01 09:02:58;;;;;;;15.40;7.10;;;;;;;3.22;60.61;102325.98;108312;1277;74910;-76
2022/03/01 09:05:26;;;;;;;15.40;6.60;;;;;;;3.36;60.75;102325.55;108022;1278;71594;-76
2022/03/01 09:07:52;;;;;;;11.10;4.10;;;;;;;3.50;59.75;102318.96;108102;1277;74127;-77
2022/03/01 09:10:21;;;;;;;10.10;4.80;;;;;;;3.62;59.04;102313.91;108248;1277;59087;-77
2022/03/01 09:12:50;;;;;;;10.00;5.20;;;;;;;3.77;59.46;102307.77;108079;1278;61624;-76
2022/03/01 09:15:17;;;;;;;13.40;6.00;;;;;;;3.93;58.54;102309.77;108017;1277;76006;-78
2022/03/01 09:17:45;;;;;;;11.70;5.30;;;;;;;4.06;58.03;102305.50;108314;1277;70434;-77
2022/03/01 09:20:11;;;;;;;15.50;5.90;;;;;;;4.14;56.47;102302.55;108321;1277;72935;-76
2022/03/01 09:22:38;;;;;;;11.60;6.70;;;;;;;4.22;56.28;102299.85;108065;1277;59706;-77
2022/03/01 09:25:06;;;;;;;15.50;7.20;;;;;;;4.34;57.07;102298.90;108139;1277;61541;-77
2022/03/01 09:27:33;;;;;;;13.80;6.90;;;;;;;4.45;56.10;102301.17;108246;1277;73860;-78
2022/03/01 09:29:59;;;;;;;13.00;6.20;;;;;;;4.58;55.82;102299.34;108092;1277;72366;-77
2022/03/01 09:32:26;;;;;;;10.70;5.50;;;;;;;4.68;55.81;102296.95;107888;1278;74391;-78
2022/03/01 09:34:55;;;;;;;13.20;6.60;;;;;;;4.80;55.22;102300.43;108144;1278;59776;-77
2022/03/01 09:37:22;;;;;;;11.30;5.50;;;;;;;4.92;54.73;102307.17;108256;1277;61390;-77
2022/03/01 09:39:49;;;;;;;15.40;7.90;;;;;;;5.00;53.98;102307.21;108279;1277;74967;-77
2022/03/01 09:42:16;;;;;;;12.60;6.50;;;;;;;5.05;53.62;102307.56;108254;1277;71660;-75
2022/03/01 09:44:43;;;;;;;14.20;6.50;;;;;;;5.13;53.06;102304.96;108007;1279;73086;-77
2022/03/01 09:47:10;;;;;;;12.90;6.60;;;;;;;5.14;51.83;102304.02;108201;1277;61338;-77
2022/03/01 09:49:36;;;;;;;12.30;6.70;;;;;;;5.11;51.37;102309.27;108040;1280;59725;-74
2022/03/01 09:52:03;;;;;;;13.40;5.60;;;;;;;5.16;52.36;102311.23;108035;1280;74934;-75
2022/03/01 09:54:30;;;;;;;16.20;7.50;;;;;;;5.25;52.89;102314.14;108333;1277;71523;-76
2022/03/01 09:56:56;;;;;;;9.00;4.80;;;;;;;5.36;52.53;102312.94;108256;1277;73993;-75
2022/03/01 09:59:24;;;;;;;13.40;7.00;;;;;;;5.39;51.58;102312.57;108194;1279;60969;-76
2022/03/01 10:01:52;;;;;;;14.60;6.40;;;;;;;5.47;51.90;102306.25;108230;1277;59947;-74
2022/03/01 10:04:19;;;;;;;10.80;6.20;;;;;;;5.57;51.91;102305.05;108328;1277;74798;-77
2022/03/01 10:06:49;;;;;;;13.50;7.50;;;;;;;5.63;50.32;102307.26;108268;1277;71535;-76
2022/03/01 10:09:24;;;;;;;11.70;6.50;;;;;;;5.67;50.48;102306.27;108187;1277;72218;-76
2022/03/01 10:11:51;;;;;;;;;;;;;;;5.75;48.91;102307.35;108258;1277;59841;-75
2022/03/01 10:14:29;;;;;;;12.20;5.20;;;;;;;5.80;48.61;102304.21;108284;1277;61244;-77
2022/03/01 10:16:56;;;;;;;12.30;5.60;;;;;;;5.83;49.41;102300.13;108279;1276;75185;-75
2022/03/01 10:19:23;;;;;;;8.50;4.70;;;;;;;5.87;49.88;102305.68;108314;1277;71756;-75
2022/03/01 10:22:02;;;;;;;13.50;5.60;;;;;;;5.83;48.14;102306.23;108249;1277;72825;-75
2022/03/01 10:24:31;;;;;;;9.80;5.70;;;;;;;5.75;47.21;102303.67;108057;1279;59741;-76
2022/03/01 10:27:01;;;;;;;14.50;6.60;;;;;;;5.69;46.68;102302.81;108048;1280;59471;-75
2022/03/01 10:29:47;;;;;;;;;;;;;;;5.65;46.72;102305.37;108140;1277;76369;-75
2022/03/01 10:32:14;;;;;;;12.40;5.90;;;;;;;5.61;47.20;102306.69;108229;1277;72343;-75
2022/03/01 10:35:07;;;;;;;12.20;5.90;;;;;;;5.58;47.75;102310.42;108117;1278;72906;-75
2022/03/01 10:37:38;;;;;;;13.50;6.10;;;;;;;5.49;47.24;102307.53;108056;1278;59818;-76
2022/03/01 10:40:18;;;;;;;13.10;5.40;;;;;;;5.49;47.42;102312.77;108075;1277;60723;-76
2022/03/01 10:42:57;;;;;;;11.40;5.10;;;;;;;5.60;46.56;102306.58;108099;1279;77142;-76
2022/03/01 10:45:34;;;;;;;14.60;6.60;;;;;;;5.81;47.49;102310.05;108314;1277;71351;-75
2022/03/01 10:48:03;;;;;;;11.80;5.60;;;;;;;6.04;47.14;102306.98;108307;1276;72616;-75
2022/03/01 10:50:29;;;;;;;12.40;5.90;;;;;;;6.22;46.46;102298.75;108324;1277;60798;-75
2022/03/01 10:52:56;;;;;;;12.00;5.90;;;;;;;6.39;46.76;102303.63;107943;1278;61558;-75
2022/03/01 10:55:25;;;;;;;11.20;4.60;;;;;;;6.57;46.86;102299.77;108101;1280;76190;-76
2022/03/01 10:57:58;;;;;;;11.70;6.00;;;;;;;6.71;46.29;102293.84;108037;1277;71358;-76
2022/03/01 11:00:24;;;;;;;10.20;5.20;;;;;;;6.77;45.32;102290.41;108126;1277;72401;-77
2022/03/01 11:02:51;;;;;;;14.10;6.30;;;;;;;6.72;42.93;102289.70;108062;1277;60884;-75
2022/03/01 11:05:18;;;;;;;9.30;4.90;;;;;;;6.62;42.71;102290.61;108272;1277;61827;-75
2022/03/01 11:08:08;;;;;;;10.90;6.00;;;;;;;6.56;43.40;102285.95;108236;1277;76901;-77
2022/03/01 11:10:37;;;;;;;12.00;6.00;;;;;;;6.53;42.86;102284.73;108265;1277;71852;-76
2022/03/01 11:13:05;;;;;;;12.00;6.20;;;;;;;6.59;43.12;102278.89;108295;1277;72227;-75
2022/03/01 11:15:47;;;;;;;11.90;5.50;;;;;;;6.67;42.69;102275.48;108312;1277;60790;-75